createdAt,value
2018-01-02T00:00:21.833Z,1.60
2018-01-02T00:03:04.346Z,1.00
2018-01-02T00:05:48.079Z,1.13
2018-01-02T00:08:30.871Z,1.20
2018-01-02T00:11:13.594Z,0.90
2018-01-02T00:13:56.497Z,1.10
2018-01-02T00:16:39.584Z,0.90
2018-01-02T00:19:21.711Z,1.40
2018-01-02T00:22:04.296Z,1.20
2018-01-02T00:24:46.974Z,1.20
2018-01-02T00:27:29.693Z,1.30
2018-01-02T00:30:12.543Z,1.00
2018-01-02T00:32:57.134Z,1.20
2018-01-02T00:35:39.781Z,1.20
2018-01-02T00:38:23.500Z,1.30
2018-01-02T00:41:06.334Z,0.90
2018-01-02T00:43:48.887Z,1.00
2018-01-02T00:46:31.924Z,1.10
2018-01-02T00:49:14.943Z,1.00
2018-01-02T00:51:58.274Z,0.97
2018-01-02T00:54:40.612Z,1.20
2018-01-02T00:57:23.232Z,0.90
2018-01-02T01:00:06.002Z,1.00
2018-01-02T01:02:49.824Z,1.10
2018-01-02T01:05:32.037Z,1.10
2018-01-02T01:08:14.594Z,1.20
2018-01-02T01:10:57.405Z,1.17
2018-01-02T01:13:40.553Z,1.10
2018-01-02T01:16:25.761Z,0.97
2018-01-02T01:19:08.705Z,1.07
2018-01-02T01:21:51.469Z,1.10
2018-01-02T01:24:34.293Z,1.20
2018-01-02T01:27:16.916Z,1.40
2018-01-02T01:29:59.589Z,1.27
2018-01-02T01:32:42.193Z,1.30
2018-01-02T01:35:26.754Z,1.30
2018-01-02T01:38:09.770Z,0.97
2018-01-02T01:40:52.268Z,1.13
2018-01-02T01:43:34.909Z,1.20
2018-01-02T01:46:18.719Z,1.10
2018-01-02T01:49:01.469Z,1.07
2018-01-02T01:51:57.617Z,0.80
2018-01-02T01:54:39.882Z,1.10
2018-01-02T01:57:22.800Z,1.40
2018-01-02T02:00:05.634Z,1.60
2018-01-02T02:03:02.250Z,1.43
2018-01-02T02:05:45.062Z,1.30
2018-01-02T02:08:27.793Z,1.00
2018-01-02T02:11:10.390Z,0.80
2018-01-02T02:13:53.256Z,1.30
2018-01-02T02:16:36.236Z,1.73
2018-01-02T02:19:19.404Z,1.37
2018-01-02T02:22:01.905Z,1.70
2018-01-02T02:24:44.767Z,1.77
2018-01-02T02:27:27.333Z,2.10
2018-01-02T02:30:10.029Z,2.70
2018-01-02T02:32:52.909Z,1.83
2018-01-02T02:35:47.250Z,2.07
2018-01-02T02:38:30.012Z,1.73
2018-01-02T02:41:12.680Z,1.60
2018-01-02T02:43:55.082Z,1.90
2018-01-02T02:46:48.679Z,2.00
2018-01-02T02:49:31.361Z,2.07
2018-01-02T02:52:14.128Z,1.90
2018-01-02T02:55:09.083Z,1.70
2018-01-02T02:57:57.899Z,2.10
2018-01-02T03:00:40.262Z,1.33
2018-01-02T03:03:22.849Z,2.07
2018-01-02T03:06:05.382Z,1.83
2018-01-02T03:08:48.099Z,1.27
2018-01-02T03:11:30.750Z,1.90
2018-01-02T03:14:13.256Z,1.63
2018-01-02T03:17:02.668Z,1.90
2018-01-02T03:19:45.429Z,1.50
2018-01-02T03:22:28.481Z,1.90
2018-01-02T03:25:11.005Z,2.03
2018-01-02T03:27:53.646Z,1.50
2018-01-02T03:30:36.476Z,1.43
2018-01-02T03:33:19.090Z,1.90
2018-01-02T03:36:01.658Z,1.73
2018-01-02T03:38:47.613Z,2.07
2018-01-02T03:41:30.579Z,1.87
2018-01-02T03:44:13.093Z,1.40
2018-01-02T03:46:55.702Z,2.20
2018-01-02T03:49:38.318Z,2.10
2018-01-02T03:52:21.296Z,1.80
2018-01-02T03:55:04.114Z,1.77
2018-01-02T03:57:46.613Z,1.97
2018-01-02T04:00:29.425Z,1.80
2018-01-02T04:03:12.292Z,2.00
2018-01-02T04:06:05.711Z,1.67
2018-01-02T04:08:47.981Z,1.97
2018-01-02T04:11:35.766Z,1.60
2018-01-02T04:14:18.576Z,1.93
2018-01-02T04:17:16.574Z,2.00
2018-01-02T04:19:59.512Z,1.77
2018-01-02T04:22:42.325Z,1.30
2018-01-02T04:25:25.222Z,2.50
2018-01-02T04:28:07.720Z,2.03
2018-01-02T04:30:50.419Z,1.87
2018-01-02T04:33:33.598Z,2.17
2018-01-02T04:36:16.059Z,2.40
2018-01-02T04:38:58.849Z,2.10
2018-01-02T04:41:41.682Z,2.33
2018-01-02T04:44:24.746Z,1.70
2018-01-02T04:47:07.485Z,2.00
2018-01-02T04:49:50.495Z,1.73
2018-01-02T04:52:39.323Z,2.20
2018-01-02T04:55:23.050Z,2.67
2018-01-02T04:58:05.869Z,1.70
2018-01-02T05:00:48.805Z,2.20
2018-01-02T05:03:32.454Z,2.30
2018-01-02T05:06:14.933Z,2.10
2018-01-02T05:08:57.521Z,1.97
2018-01-02T05:11:40.128Z,2.20
2018-01-02T05:14:23.717Z,2.00
2018-01-02T05:17:06.526Z,2.87
2018-01-02T05:19:55.364Z,2.67
2018-01-02T05:22:38.089Z,2.97
2018-01-02T05:25:26.789Z,2.67
2018-01-02T05:28:09.405Z,2.20
2018-01-02T05:30:52.127Z,2.00
2018-01-02T05:33:40.746Z,2.00
2018-01-02T05:36:23.690Z,2.20
2018-01-02T05:39:07.262Z,2.50
2018-01-02T05:41:50.093Z,2.20
2018-01-02T05:44:32.793Z,2.70
2018-01-02T05:47:15.725Z,2.47
2018-01-02T05:49:58.332Z,3.50
2018-01-02T05:52:40.994Z,2.87
2018-01-02T05:55:24.522Z,2.53
2018-01-02T05:58:07.409Z,3.37
2018-01-02T06:00:50.446Z,3.13
2018-01-02T06:03:33.274Z,2.60
2018-01-02T06:06:15.919Z,3.13
2018-01-02T06:08:58.578Z,2.67
2018-01-02T06:11:41.329Z,2.93
2018-01-02T06:14:23.721Z,3.73
2018-01-02T06:17:13.205Z,3.43
2018-01-02T06:19:56.105Z,3.23
2018-01-02T06:22:38.800Z,3.70
2018-01-02T06:25:21.337Z,2.50
2018-01-02T06:28:03.926Z,2.33
2018-01-02T06:30:46.463Z,2.03
2018-01-02T06:33:29.056Z,2.40
2018-01-02T06:36:11.871Z,2.60
2018-01-02T06:38:54.409Z,2.87
2018-01-02T06:41:37.046Z,1.87
2018-01-02T06:44:20.015Z,2.17
2018-01-02T06:47:02.718Z,2.60
2018-01-02T06:49:45.693Z,1.90
2018-01-02T06:52:28.410Z,2.30
2018-01-02T06:55:11.184Z,2.23
2018-01-02T06:57:53.910Z,2.03
2018-01-02T07:00:36.555Z,3.03
2018-01-02T07:03:20.098Z,2.43
2018-01-02T07:06:03.021Z,2.10
2018-01-02T07:08:45.764Z,2.03
2018-01-02T07:11:28.606Z,1.70
2018-01-02T07:14:11.611Z,2.40
2018-01-02T07:17:06.087Z,2.17
2018-01-02T07:19:49.053Z,3.27
2018-01-02T07:22:31.658Z,1.73
2018-01-02T07:25:14.398Z,2.30
2018-01-02T07:28:03.141Z,1.90
2018-01-02T07:30:45.961Z,2.17
2018-01-02T07:33:28.777Z,2.20
2018-01-02T07:36:11.711Z,1.63
2018-01-02T07:38:54.336Z,1.80
2018-01-02T07:41:36.998Z,1.77
2018-01-02T07:44:21.357Z,1.73
2018-01-02T07:47:04.087Z,2.70
2018-01-02T07:49:46.798Z,2.10
2018-01-02T07:52:35.650Z,1.93
2018-01-02T07:55:18.448Z,1.97
2018-01-02T07:58:04.230Z,1.57
2018-01-02T08:00:47.190Z,1.37
2018-01-02T08:03:30.001Z,2.10
2018-01-02T08:06:12.722Z,1.83
2018-01-02T08:08:55.382Z,1.23
2018-01-02T08:11:38.129Z,2.00
2018-01-02T08:14:20.878Z,1.80
2018-01-02T08:17:03.200Z,1.30
2018-01-02T08:19:45.915Z,1.30
2018-01-02T08:22:28.645Z,1.50
2018-01-02T08:25:11.440Z,1.20
2018-01-02T08:27:53.957Z,1.37
2018-01-02T08:30:36.513Z,1.03
2018-01-02T08:33:19.467Z,1.30
2018-01-02T08:36:02.199Z,1.10
2018-01-02T08:38:44.906Z,1.13
2018-01-02T08:41:29.406Z,1.23
2018-01-02T08:44:12.614Z,1.30
2018-01-02T08:46:55.030Z,1.57
2018-01-02T08:49:38.165Z,1.20
2018-01-02T08:52:20.450Z,1.70
2018-01-02T08:55:10.766Z,1.30
2018-01-02T08:57:53.882Z,1.80
2018-01-02T09:00:42.406Z,1.50
2018-01-02T09:03:24.914Z,1.67
2018-01-02T09:06:13.621Z,1.57
2018-01-02T09:08:56.308Z,1.10
2018-01-02T09:11:38.901Z,1.53
2018-01-02T09:14:22.715Z,1.13
2018-01-02T09:17:05.453Z,1.13
2018-01-02T09:19:48.174Z,1.80
2018-01-02T09:22:30.822Z,1.27
2018-01-02T09:25:13.607Z,1.40
2018-01-02T09:27:56.181Z,2.30
2018-01-02T09:30:38.873Z,1.10
2018-01-02T09:33:28.359Z,1.50
2018-01-02T09:36:11.113Z,1.43
2018-01-02T09:38:54.542Z,1.50
2018-01-02T09:41:37.434Z,0.93
2018-01-02T09:44:23.217Z,1.30
2018-01-02T09:47:05.776Z,1.93
2018-01-02T09:49:48.299Z,0.97
2018-01-02T09:52:31.181Z,0.97
2018-01-02T09:55:14.380Z,1.33
2018-01-02T09:57:57.145Z,1.20
2018-01-02T10:00:39.673Z,1.70
2018-01-02T10:03:22.169Z,1.87
2018-01-02T10:06:08.887Z,1.13
2018-01-02T10:08:59.631Z,1.00
2018-01-02T10:11:42.677Z,0.93
2018-01-02T10:14:25.208Z,1.07
2018-01-02T10:17:08.122Z,1.07
2018-01-02T10:19:51.110Z,1.00
2018-01-02T10:22:33.928Z,1.00
2018-01-02T10:25:23.695Z,1.50
2018-01-02T10:28:06.407Z,1.70
2018-01-02T10:30:49.406Z,1.80
2018-01-02T10:33:31.879Z,1.80
2018-01-02T10:36:14.679Z,1.73
2018-01-02T10:38:56.886Z,1.50
2018-01-02T10:41:39.605Z,1.30
2018-01-02T10:44:21.993Z,2.10
2018-01-02T10:47:04.811Z,1.63
2018-01-02T10:49:48.561Z,1.97
2018-01-02T10:52:31.736Z,1.63
2018-01-02T10:55:14.254Z,1.20
2018-01-02T10:57:58.837Z,1.27
2018-01-02T11:00:47.456Z,1.33
2018-01-02T11:03:30.653Z,1.60
2018-01-02T11:06:13.830Z,2.37
2018-01-02T11:08:56.799Z,0.97
2018-01-02T11:11:44.867Z,1.40
2018-01-02T11:14:32.790Z,1.90
2018-01-02T11:17:15.468Z,2.10
2018-01-02T11:19:58.326Z,2.10
2018-01-02T11:22:41.070Z,2.40
2018-01-02T11:25:23.748Z,1.80
2018-01-02T11:28:06.284Z,2.47
2018-01-02T11:30:56.721Z,1.30
2018-01-02T11:33:39.689Z,1.77
2018-01-02T11:36:22.644Z,1.30
2018-01-02T11:39:05.397Z,1.60
2018-01-02T11:41:47.854Z,1.80
2018-01-02T11:44:30.664Z,2.50
2018-01-02T11:47:13.397Z,1.87
2018-01-02T11:49:56.177Z,1.90
2018-01-02T11:52:39.142Z,2.17
2018-01-02T11:55:21.963Z,2.40
2018-01-02T11:58:04.851Z,1.87
2018-01-02T12:00:47.557Z,2.00
2018-01-02T12:03:30.261Z,2.10
2018-01-02T12:06:13.363Z,2.10
2018-01-02T12:08:55.890Z,2.37
2018-01-02T12:11:44.618Z,1.63
2018-01-02T12:14:27.430Z,1.60
2018-01-02T12:17:10.446Z,1.60
2018-01-02T12:19:54.118Z,1.70
2018-01-02T12:22:49.294Z,1.80
2018-01-02T12:25:31.660Z,1.57
2018-01-02T12:28:14.210Z,2.00
2018-01-02T12:30:56.841Z,1.50
2018-01-02T12:33:46.910Z,2.07
2018-01-02T12:36:29.358Z,1.53
2018-01-02T12:39:12.014Z,1.50
2018-01-02T12:41:54.789Z,1.40
2018-01-02T12:44:42.090Z,2.00
2018-01-02T12:47:38.386Z,1.80
2018-01-02T12:50:20.556Z,1.77
2018-01-02T12:53:04.360Z,1.80
2018-01-02T12:55:47.128Z,1.30
2018-01-02T12:58:29.802Z,1.83
2018-01-02T13:01:12.487Z,1.70
2018-01-02T13:03:55.197Z,1.60
2018-01-02T13:06:45.527Z,1.47
2018-01-02T13:09:28.516Z,1.50
2018-01-02T13:12:13.181Z,1.77
2018-01-02T13:15:02.899Z,1.30
2018-01-02T13:17:52.756Z,1.37
2018-01-02T13:20:35.611Z,1.20
2018-01-02T13:23:18.318Z,1.80
2018-01-02T13:26:00.870Z,1.40
2018-01-02T13:28:43.397Z,1.57
2018-01-02T13:31:26.111Z,1.70
2018-01-02T13:34:08.766Z,1.80
2018-01-02T13:36:51.242Z,2.57
2018-01-02T13:39:33.870Z,1.87
2018-01-02T13:42:16.598Z,1.77
2018-01-02T13:44:59.139Z,2.30
2018-01-02T13:47:41.590Z,2.37
2018-01-02T13:50:24.416Z,2.80
2018-01-02T13:53:06.970Z,3.07
2018-01-02T13:55:49.602Z,2.40
2018-01-02T13:58:45.458Z,2.23
2018-01-02T14:01:28.432Z,1.80
2018-01-02T14:04:11.088Z,2.17
2018-01-02T14:06:53.846Z,2.50
2018-01-02T14:09:36.561Z,2.83
2018-01-02T14:12:19.281Z,2.50
2018-01-02T14:15:01.964Z,1.90
2018-01-02T14:17:45.424Z,1.80
2018-01-02T14:20:28.656Z,1.73
2018-01-02T14:23:11.027Z,1.70
2018-01-02T14:25:53.614Z,2.27
2018-01-02T14:28:44.102Z,1.57
2018-01-02T14:31:27.042Z,1.53
2018-01-02T14:34:09.620Z,1.73
2018-01-02T14:36:52.378Z,1.53
2018-01-02T14:39:35.405Z,1.63
2018-01-02T14:42:17.867Z,1.50
2018-01-02T14:45:00.535Z,1.90
2018-01-02T14:47:43.081Z,1.77
2018-01-02T14:50:30.550Z,1.50
2018-01-02T14:53:13.456Z,1.40
2018-01-02T14:55:57.268Z,1.40
2018-01-02T14:58:40.064Z,1.20
2018-01-02T15:01:25.304Z,1.83
2018-01-02T15:04:08.095Z,1.43
2018-01-02T15:06:50.854Z,1.73
2018-01-02T15:09:46.433Z,1.43
2018-01-02T15:12:29.282Z,1.73
2018-01-02T15:15:12.145Z,1.80
2018-01-02T15:18:01.942Z,2.53
2018-01-02T15:20:44.823Z,2.17
2018-01-02T15:23:32.701Z,1.50
2018-01-02T15:26:15.577Z,1.60
2018-01-02T15:28:58.883Z,1.30
2018-01-02T15:31:42.038Z,1.43
2018-01-02T15:34:24.988Z,1.67
2018-01-02T15:37:07.162Z,1.93
2018-01-02T15:39:50.116Z,1.80
2018-01-02T15:42:32.548Z,2.40
2018-01-02T15:45:15.445Z,1.97
2018-01-02T15:47:58.353Z,1.83
2018-01-02T15:50:41.234Z,2.30
2018-01-02T15:53:23.719Z,1.77
2018-01-02T15:56:12.378Z,1.90
2018-01-02T15:58:55.087Z,2.20
2018-01-02T16:01:37.771Z,2.20
2018-01-02T16:04:20.458Z,1.90
2018-01-02T16:07:02.946Z,2.00
2018-01-02T16:09:54.301Z,1.80
2018-01-02T16:12:37.305Z,1.83
2018-01-02T16:15:20.149Z,2.73
2018-01-02T16:18:03.535Z,1.83
2018-01-02T16:20:46.419Z,2.07
2018-01-02T16:23:28.859Z,1.90
2018-01-02T16:26:11.594Z,2.00
2018-01-02T16:28:55.705Z,2.10
2018-01-02T16:31:38.238Z,2.83
2018-01-02T16:34:20.914Z,1.63
2018-01-02T16:37:03.510Z,1.63
2018-01-02T16:39:52.198Z,3.40
2018-01-02T16:42:34.870Z,2.17
2018-01-02T16:45:17.645Z,2.17
2018-01-02T16:48:00.261Z,2.20
2018-01-02T16:50:42.813Z,1.90
2018-01-02T16:53:25.596Z,1.77
2018-01-02T16:56:09.113Z,2.17
2018-01-02T16:58:51.953Z,1.90
2018-01-02T17:01:34.597Z,1.67
2018-01-02T17:04:17.340Z,1.67
2018-01-02T17:07:00.843Z,1.30
2018-01-02T17:09:43.633Z,1.30
2018-01-02T17:12:26.231Z,1.73
2018-01-02T17:15:08.918Z,1.10
2018-01-02T17:17:51.570Z,0.97
2018-01-02T17:20:34.356Z,1.13
2018-01-02T17:23:16.981Z,1.40
2018-01-02T17:25:59.588Z,2.40
2018-01-02T17:28:42.133Z,1.10
2018-01-02T17:31:24.969Z,1.20
2018-01-02T17:34:09.536Z,1.20
2018-01-02T17:36:58.662Z,1.40
2018-01-02T17:39:41.149Z,1.57
2018-01-02T17:42:28.669Z,1.27
2018-01-02T17:45:11.798Z,1.33
2018-01-02T17:48:01.210Z,2.07
2018-01-02T17:50:43.690Z,1.30
2018-01-02T17:53:26.413Z,1.10
2018-01-02T17:56:09.137Z,1.07
2018-01-02T17:58:51.652Z,1.03
2018-01-02T18:01:34.469Z,1.10
2018-01-02T18:04:17.742Z,1.03
2018-01-02T18:07:00.129Z,1.00
2018-01-02T18:09:42.590Z,0.90
2018-01-02T18:12:25.204Z,1.23
2018-01-02T18:15:08.033Z,1.10
2018-01-02T18:17:50.653Z,1.20
2018-01-02T18:20:34.228Z,1.17
2018-01-02T18:23:17.047Z,0.93
2018-01-02T18:25:59.609Z,1.10
2018-01-02T18:28:42.398Z,1.37
2018-01-02T18:31:24.822Z,1.10
2018-01-02T18:34:07.585Z,1.13
2018-01-02T18:36:50.265Z,1.10
2018-01-02T18:39:32.918Z,1.10
2018-01-02T18:42:15.507Z,1.00
2018-01-02T18:44:58.450Z,1.10
2018-01-02T18:47:41.027Z,1.17
2018-01-02T18:50:23.639Z,0.93
2018-01-02T18:53:06.413Z,1.03
2018-01-02T18:55:49.111Z,1.00
2018-01-02T18:58:32.561Z,1.20
2018-01-02T19:01:15.406Z,1.47
2018-01-02T19:03:58.048Z,1.03
2018-01-02T19:06:40.637Z,0.97
2018-01-02T19:09:23.517Z,1.40
2018-01-02T19:12:06.440Z,0.90
2018-01-02T19:14:48.921Z,1.20
2018-01-02T19:17:31.614Z,1.00
2018-01-02T19:20:15.286Z,1.20
2018-01-02T19:22:58.093Z,1.23
2018-01-02T19:25:42.547Z,1.20
2018-01-02T19:28:25.474Z,1.60
2018-01-02T19:31:08.095Z,1.80
2018-01-02T19:33:52.562Z,1.30
2018-01-02T19:36:35.373Z,1.33
2018-01-02T19:39:17.991Z,1.00
2018-01-02T19:42:00.930Z,1.23
2018-01-02T19:44:43.809Z,1.20
2018-01-02T19:47:26.311Z,1.47
2018-01-02T19:50:08.851Z,1.20
2018-01-02T19:52:51.645Z,1.43
2018-01-02T19:55:34.459Z,1.43
2018-01-02T19:58:17.205Z,1.40
2018-01-02T20:00:59.887Z,1.30
2018-01-02T20:03:42.948Z,1.30
2018-01-02T20:06:25.217Z,1.50
2018-01-02T20:09:08.018Z,1.30
2018-01-02T20:11:58.669Z,1.40
2018-01-02T20:14:41.621Z,1.40
2018-01-02T20:17:24.474Z,1.30
2018-01-02T20:20:07.324Z,1.57
2018-01-02T20:22:50.099Z,1.60
2018-01-02T20:25:38.389Z,1.20
2018-01-02T20:28:21.398Z,1.20
2018-01-02T20:31:08.024Z,1.23
2018-01-02T20:33:50.792Z,1.20
2018-01-02T20:36:33.552Z,1.37
2018-01-02T20:39:30.254Z,0.90
2018-01-02T20:42:13.065Z,0.90
2018-01-02T20:44:56.028Z,1.20
2018-01-02T20:47:38.250Z,1.30
2018-01-02T20:50:20.886Z,1.23
2018-01-02T20:53:03.657Z,1.40
2018-01-02T20:55:46.226Z,1.30
2018-01-02T20:58:28.842Z,1.70
2018-01-02T21:01:11.455Z,2.17
2018-01-02T21:03:54.518Z,1.90
2018-01-02T21:06:37.777Z,1.40
2018-01-02T21:09:20.605Z,1.40
2018-01-02T21:12:03.256Z,1.70
2018-01-02T21:14:46.292Z,1.20
2018-01-02T21:17:28.681Z,1.27
2018-01-02T21:20:11.389Z,1.07
2018-01-02T21:22:54.125Z,1.30
2018-01-02T21:25:36.753Z,1.50
2018-01-02T21:28:19.238Z,1.20
2018-01-02T21:31:15.328Z,1.40
2018-01-02T21:33:57.678Z,1.90
2018-01-02T21:36:40.589Z,1.50
2018-01-02T21:39:23.111Z,1.43
2018-01-02T21:42:06.097Z,1.30
2018-01-02T21:45:07.757Z,1.10
2018-01-02T21:47:49.993Z,0.90
2018-01-02T21:50:32.701Z,1.00
2018-01-02T21:53:15.534Z,0.97
2018-01-02T21:55:57.878Z,1.10
2018-01-02T21:58:41.294Z,1.00
2018-01-02T22:01:26.022Z,1.10
2018-01-02T22:04:08.885Z,1.03
2018-01-02T22:06:51.561Z,0.97
2018-01-02T22:09:43.150Z,1.37
2018-01-02T22:12:25.943Z,1.30
2018-01-02T22:15:14.553Z,1.23
2018-01-02T22:18:03.698Z,1.53
2018-01-02T22:20:46.061Z,1.10
2018-01-02T22:23:28.944Z,1.03
2018-01-02T22:26:18.703Z,1.33
2018-01-02T22:29:13.353Z,1.30
2018-01-02T22:31:56.218Z,1.20
2018-01-02T22:34:47.613Z,1.27
2018-01-02T22:37:30.430Z,0.97
2018-01-02T22:40:14.070Z,0.90
2018-01-02T22:42:56.997Z,1.13
2018-01-02T22:45:39.661Z,1.00
2018-01-02T22:48:22.495Z,1.00
2018-01-02T22:51:05.130Z,1.40
2018-01-02T22:53:47.826Z,1.67
2018-01-02T22:56:30.434Z,1.70
2018-01-02T22:59:12.958Z,1.57
2018-01-02T23:01:55.678Z,1.20
2018-01-02T23:04:38.340Z,1.20
2018-01-02T23:07:21.670Z,1.60
2018-01-02T23:10:04.466Z,1.83
2018-01-02T23:13:00.671Z,2.40
2018-01-02T23:15:50.012Z,2.10
2018-01-02T23:18:32.641Z,2.83
2018-01-02T23:21:15.383Z,2.20
2018-01-02T23:23:57.880Z,2.17
2018-01-02T23:26:40.518Z,2.30
2018-01-02T23:29:23.190Z,2.70
2018-01-02T23:32:12.141Z,2.40
2018-01-02T23:35:08.062Z,1.00
2018-01-02T23:37:50.493Z,0.90
2018-01-02T23:40:33.135Z,1.00
2018-01-02T23:43:16.051Z,0.70
2018-01-02T23:45:58.882Z,0.90
2018-01-02T23:48:41.309Z,0.80
2018-01-02T23:51:23.910Z,1.17
2018-01-02T23:54:06.698Z,0.90
2018-01-02T23:56:49.429Z,1.00
2018-01-02T23:59:32.083Z,0.97
